createdAt,value
2018-06-03T00:02:01.490Z,91.10
2018-06-03T00:04:29.056Z,91.00
2018-06-03T00:06:56.609Z,91.10
2018-06-03T00:09:24.165Z,91.10
2018-06-03T00:11:51.647Z,91.20
2018-06-03T00:14:19.897Z,91.20
2018-06-03T00:16:47.356Z,91.10
2018-06-03T00:19:15.634Z,91.30
2018-06-03T00:21:43.099Z,91.30
2018-06-03T00:24:10.589Z,91.30
2018-06-03T00:26:38.036Z,91.20
2018-06-03T00:29:06.285Z,91.40
2018-06-03T00:31:33.758Z,91.40
2018-06-03T00:34:01.220Z,91.40
2018-06-03T00:36:40.697Z,91.30
2018-06-03T00:39:08.145Z,91.30
2018-06-03T00:41:36.525Z,91.60
2018-06-03T00:44:03.980Z,91.30
2018-06-03T00:46:31.508Z,91.30
2018-06-03T00:48:58.960Z,91.40
2018-06-03T00:51:26.417Z,91.60
2018-06-03T00:53:53.876Z,91.50
2018-06-03T00:56:33.244Z,91.50
2018-06-03T00:59:01.480Z,91.40
2018-06-03T01:01:29.060Z,91.40
2018-06-03T01:03:56.524Z,91.70
2018-06-03T01:06:23.983Z,92.10
2018-06-03T01:08:51.516Z,91.80
2018-06-03T01:11:18.985Z,91.80
2018-06-03T01:13:46.453Z,91.90
2018-06-03T01:16:14.001Z,91.90
2018-06-03T01:18:41.561Z,92.00
2018-06-03T01:21:09.128Z,92.10
2018-06-03T01:23:37.392Z,92.20
2018-06-03T01:26:04.860Z,92.20
2018-06-03T01:28:32.318Z,92.30
2018-06-03T01:30:59.792Z,92.50
2018-06-03T01:33:28.041Z,92.20
2018-06-03T01:35:55.609Z,92.20
2018-06-03T01:38:23.164Z,92.20
2018-06-03T01:40:50.724Z,92.30
2018-06-03T01:43:18.185Z,92.30
2018-06-03T01:45:45.753Z,92.30
2018-06-03T01:48:14.025Z,92.30
2018-06-03T01:50:41.546Z,92.30
2018-06-03T01:53:09.038Z,92.50
2018-06-03T01:55:36.600Z,92.50
2018-06-03T01:58:04.056Z,92.70
2018-06-03T02:00:31.518Z,92.70
2018-06-03T02:02:58.977Z,92.50
2018-06-03T02:05:26.537Z,92.50
2018-06-03T02:07:54.092Z,92.60
2018-06-03T02:10:21.656Z,92.60
2018-06-03T02:12:49.117Z,92.70
2018-06-03T02:15:16.680Z,92.70
2018-06-03T02:17:44.237Z,92.60
2018-06-03T02:20:11.705Z,92.70
2018-06-03T02:22:39.253Z,92.80
2018-06-03T02:25:06.825Z,92.70
2018-06-03T02:27:34.376Z,93.20
2018-06-03T02:30:01.853Z,92.80
2018-06-03T02:32:30.088Z,93.00
2018-06-03T02:34:57.549Z,92.90
2018-06-03T02:37:25.009Z,92.90
2018-06-03T02:39:52.465Z,92.80
2018-06-03T02:42:19.921Z,92.90
2018-06-03T02:44:47.403Z,92.90
2018-06-03T02:47:14.965Z,92.90
2018-06-03T02:49:42.523Z,93.00
2018-06-03T02:52:09.981Z,93.10
2018-06-03T02:54:37.541Z,93.00
2018-06-03T02:57:05.063Z,93.00
2018-06-03T02:59:32.562Z,93.00
2018-06-03T03:02:00.043Z,93.10
2018-06-03T03:04:27.492Z,93.20
2018-06-03T03:06:54.957Z,93.20
2018-06-03T03:09:23.193Z,93.30
2018-06-03T03:11:50.644Z,93.20
2018-06-03T03:14:18.125Z,93.30
2018-06-03T03:16:45.590Z,93.30
2018-06-03T03:19:13.056Z,93.30
2018-06-03T03:21:41.325Z,93.50
2018-06-03T03:24:08.793Z,93.30
2018-06-03T03:26:36.332Z,93.30
2018-06-03T03:29:03.822Z,93.40
2018-06-03T03:31:32.049Z,93.30
2018-06-03T03:33:59.533Z,93.30
2018-06-03T03:36:27.151Z,93.40
2018-06-03T03:38:54.604Z,93.30
2018-06-03T03:41:22.067Z,93.20
2018-06-03T03:43:49.569Z,93.30
2018-06-03T03:46:17.128Z,93.20
2018-06-03T03:48:44.603Z,93.00
2018-06-03T03:51:12.869Z,93.10
2018-06-03T03:53:40.344Z,92.80
2018-06-03T03:56:08.584Z,92.80
2018-06-03T03:58:36.060Z,92.80
2018-06-03T04:01:03.617Z,92.80
2018-06-03T04:03:31.176Z,92.60
2018-06-03T04:05:58.656Z,92.60
2018-06-03T04:08:26.909Z,92.40
2018-06-03T04:10:54.375Z,92.40
2018-06-03T04:13:22.648Z,92.20
2018-06-03T04:15:50.208Z,92.30
2018-06-03T04:18:17.680Z,92.00
2018-06-03T04:20:45.140Z,92.20
2018-06-03T04:23:12.693Z,91.80
2018-06-03T04:25:40.253Z,91.60
2018-06-03T04:28:07.805Z,91.50
2018-06-03T04:30:35.262Z,91.30
2018-06-03T04:33:02.718Z,91.10
2018-06-03T04:35:30.180Z,91.10
2018-06-03T04:37:57.740Z,91.00
2018-06-03T04:40:25.300Z,90.80
2018-06-03T04:42:52.768Z,90.60
2018-06-03T04:45:20.317Z,90.40
2018-06-03T04:47:47.772Z,90.40
2018-06-03T04:50:15.337Z,90.30
2018-06-03T04:52:42.897Z,89.90
2018-06-03T04:55:10.372Z,89.50
2018-06-03T04:57:37.912Z,89.70
2018-06-03T05:00:05.477Z,89.60
2018-06-03T05:02:32.933Z,89.20
2018-06-03T05:05:00.501Z,88.80
2018-06-03T05:07:28.053Z,88.50
2018-06-03T05:09:55.517Z,88.40
2018-06-03T05:12:23.077Z,87.90
2018-06-03T05:14:50.528Z,87.40
2018-06-03T05:17:17.989Z,87.10
2018-06-03T05:19:45.444Z,86.40
2018-06-03T05:22:12.904Z,85.70
2018-06-03T05:24:40.469Z,84.80
2018-06-03T05:27:08.089Z,83.70
2018-06-03T05:29:35.647Z,82.50
2018-06-03T05:32:03.151Z,81.30
2018-06-03T05:34:30.612Z,78.50
2018-06-03T05:36:58.161Z,73.80
2018-06-03T05:39:25.621Z,67.50
2018-06-03T05:41:53.084Z,63.40
2018-06-03T05:44:20.592Z,60.60
2018-06-03T05:46:48.779Z,57.60
2018-06-03T05:49:16.273Z,57.60
2018-06-03T05:51:43.832Z,57.20
2018-06-03T05:54:11.398Z,55.90
2018-06-03T05:56:38.860Z,55.20
2018-06-03T05:59:07.124Z,55.10
2018-06-03T06:01:34.687Z,55.00
2018-06-03T06:04:02.143Z,55.90
2018-06-03T06:06:29.704Z,55.60
2018-06-03T06:08:57.274Z,57.70
2018-06-03T06:11:24.749Z,59.30
2018-06-03T06:13:53.005Z,60.20
2018-06-03T06:16:20.464Z,60.20
2018-06-03T06:18:48.029Z,62.40
2018-06-03T06:21:15.489Z,63.50
2018-06-03T06:23:43.040Z,63.90
2018-06-03T06:26:10.600Z,64.90
2018-06-03T06:28:38.121Z,64.50
2018-06-03T06:31:05.574Z,66.00
2018-06-03T06:33:33.031Z,66.20
2018-06-03T06:36:00.542Z,65.70
2018-06-03T06:38:28.011Z,65.90
2018-06-03T06:40:55.472Z,65.90
2018-06-03T06:43:23.730Z,67.40
2018-06-03T06:45:51.290Z,66.70
2018-06-03T06:48:18.752Z,66.00
2018-06-03T06:50:46.213Z,66.80
2018-06-03T06:53:13.680Z,66.30
2018-06-03T06:55:41.229Z,66.10
2018-06-03T06:58:08.797Z,65.20
2018-06-03T07:00:36.349Z,65.40
2018-06-03T07:03:03.905Z,65.90
2018-06-03T07:05:31.469Z,66.30
2018-06-03T07:07:58.932Z,65.90
2018-06-03T07:10:26.397Z,65.70
2018-06-03T07:12:53.861Z,64.50
2018-06-03T07:15:21.400Z,64.80
2018-06-03T07:17:48.865Z,65.70
2018-06-03T07:20:16.333Z,65.00
2018-06-03T07:22:43.885Z,64.70
2018-06-03T07:25:11.449Z,64.60
2018-06-03T07:27:39.009Z,65.90
2018-06-03T07:30:06.577Z,65.80
2018-06-03T07:32:34.040Z,65.60
2018-06-03T07:35:01.504Z,63.90
2018-06-03T07:38:00.566Z,63.10
2018-06-03T07:40:28.808Z,62.30
2018-06-03T07:42:56.997Z,62.10
2018-06-03T07:45:25.185Z,62.20
2018-06-03T07:47:53.398Z,62.30
2018-06-03T07:50:21.596Z,61.90
2018-06-03T07:52:49.773Z,61.60
2018-06-03T07:55:17.969Z,62.50
2018-06-03T07:57:46.150Z,62.90
2018-06-03T08:00:14.344Z,61.80
2018-06-03T08:02:42.540Z,59.60
2018-06-03T08:05:10.725Z,60.10
2018-06-03T08:07:38.915Z,58.80
2018-06-03T08:12:35.091Z,59.10
2018-06-03T08:15:03.273Z,59.80
2018-06-03T08:17:31.486Z,59.30
2018-06-03T08:19:59.757Z,58.10
2018-06-03T08:22:27.969Z,57.80
2018-06-03T08:24:56.185Z,58.30
2018-06-03T08:27:24.389Z,57.80
2018-06-03T08:29:52.594Z,57.70
2018-06-03T08:32:20.773Z,57.50
2018-06-03T08:34:49.000Z,57.00
2018-06-03T08:37:17.180Z,56.30
2018-06-03T08:39:45.369Z,57.00
2018-06-03T08:42:13.543Z,57.60
2018-06-03T08:44:41.730Z,57.10
2018-06-03T08:47:09.912Z,56.60
2018-06-03T08:49:38.228Z,56.70
2018-06-03T08:52:06.413Z,56.20
2018-06-03T08:54:34.623Z,56.20
2018-06-03T08:57:02.830Z,55.80
2018-06-03T08:59:31.033Z,56.20
2018-06-03T09:01:59.221Z,57.10
2018-06-03T09:04:27.417Z,56.00
2018-06-03T09:06:55.657Z,55.20
2018-06-03T09:09:23.793Z,54.90
2018-06-03T09:11:51.986Z,56.30
2018-06-03T09:14:20.178Z,54.70
2018-06-03T09:16:48.378Z,55.30
2018-06-03T09:19:16.586Z,53.60
2018-06-03T09:21:44.772Z,52.90
2018-06-03T09:24:13.001Z,54.40
2018-06-03T09:26:41.219Z,56.60
2018-06-03T09:29:09.396Z,56.60
2018-06-03T09:31:37.605Z,56.50
2018-06-03T09:34:05.813Z,56.70
2018-06-03T09:36:34.024Z,56.60
2018-06-03T09:39:02.217Z,55.30
2018-06-03T09:41:30.395Z,55.70
2018-06-03T09:43:58.582Z,54.30
2018-06-03T09:46:26.774Z,54.00
2018-06-03T09:48:54.957Z,52.50
2018-06-03T09:51:23.203Z,53.40
2018-06-03T09:53:51.394Z,52.60
2018-06-03T09:56:19.621Z,52.00
2018-06-03T09:58:47.810Z,52.80
2018-06-03T10:01:15.989Z,52.10
2018-06-03T10:03:44.191Z,51.50
2018-06-03T10:06:12.373Z,51.80
2018-06-03T10:08:40.629Z,51.30
2018-06-03T10:11:08.822Z,50.10
2018-06-03T10:13:37.042Z,51.30
2018-06-03T10:16:05.435Z,49.50
2018-06-03T10:18:33.617Z,50.10
2018-06-03T10:21:01.827Z,47.90
2018-06-03T10:23:30.041Z,49.40
2018-06-03T10:25:58.282Z,48.40
2018-06-03T10:28:26.493Z,49.80
2018-06-03T10:30:54.720Z,49.90
2018-06-03T10:33:22.909Z,48.80
2018-06-03T10:35:51.093Z,48.70
2018-06-03T10:38:19.301Z,45.10
2018-06-03T10:43:15.491Z,47.10
2018-06-03T10:45:43.672Z,46.20
2018-06-03T10:48:11.862Z,45.40
2018-06-03T10:50:40.041Z,45.10
2018-06-03T10:53:08.246Z,43.40
2018-06-03T10:55:36.437Z,42.30
2018-06-03T10:58:04.646Z,43.30
2018-06-03T11:00:32.857Z,44.70
2018-06-03T11:03:01.605Z,43.50
2018-06-03T11:05:30.191Z,42.60
2018-06-03T11:07:59.316Z,42.20
2018-06-03T11:10:27.513Z,41.50
2018-06-03T11:12:55.702Z,42.50
2018-06-03T11:15:23.898Z,44.50
2018-06-03T11:17:52.188Z,45.80
2018-06-03T11:20:20.468Z,45.40
2018-06-03T11:22:48.650Z,46.60
2018-06-03T11:25:16.833Z,47.90
2018-06-03T11:27:45.030Z,48.50
2018-06-03T11:30:13.274Z,49.90
2018-06-03T11:32:41.450Z,51.30
2018-06-03T11:35:09.650Z,49.30
2018-06-03T11:37:37.857Z,48.80
2018-06-03T11:42:34.024Z,49.50
2018-06-03T11:45:02.197Z,51.00
2018-06-03T11:47:30.379Z,51.10
2018-06-03T11:49:58.558Z,50.00
2018-06-03T11:52:26.776Z,48.20
2018-06-03T11:54:54.958Z,48.40
2018-06-03T11:57:27.999Z,48.90
2018-06-03T11:59:56.948Z,48.80
2018-06-03T12:02:25.136Z,47.70
2018-06-03T12:04:53.346Z,47.20
2018-06-03T12:07:21.566Z,48.40
2018-06-03T12:09:49.781Z,48.70
2018-06-03T12:12:18.007Z,49.20
2018-06-03T12:14:46.187Z,48.50
2018-06-03T12:17:14.365Z,47.40
2018-06-03T12:19:42.573Z,46.00
2018-06-03T12:24:38.701Z,47.40
2018-06-03T12:29:34.887Z,48.00
2018-06-03T12:32:03.083Z,48.80
2018-06-03T12:34:31.265Z,49.40
2018-06-03T12:36:59.447Z,49.00
2018-06-03T12:39:27.624Z,48.40
2018-06-03T12:41:55.858Z,50.10
2018-06-03T12:44:24.010Z,47.60
2018-06-03T12:46:52.203Z,47.50
2018-06-03T12:49:20.393Z,47.40
2018-06-03T12:51:48.582Z,45.40
2018-06-03T12:54:16.771Z,44.40
2018-06-03T12:56:44.999Z,45.00
2018-06-03T12:59:13.196Z,46.40
2018-06-03T13:01:42.831Z,45.30
2018-06-03T13:04:11.008Z,44.40
2018-06-03T13:06:39.197Z,43.60
2018-06-03T13:09:07.408Z,43.40
2018-06-03T13:11:35.585Z,43.50
2018-06-03T13:14:03.780Z,44.10
2018-06-03T13:16:31.993Z,45.20
2018-06-03T13:19:00.203Z,45.30
2018-06-03T13:21:28.394Z,45.80
2018-06-03T13:23:56.598Z,45.00
2018-06-03T13:26:24.794Z,45.80
2018-06-03T13:28:53.009Z,44.70
2018-06-03T13:31:21.202Z,44.70
2018-06-03T13:33:49.397Z,44.90
2018-06-03T13:36:17.581Z,46.10
2018-06-03T13:38:45.781Z,45.40
2018-06-03T13:41:13.962Z,43.80
2018-06-03T13:43:42.145Z,43.00
2018-06-03T13:46:10.321Z,42.00
2018-06-03T13:48:38.501Z,43.80
2018-06-03T13:51:06.700Z,43.10
2018-06-03T13:53:34.916Z,43.00
2018-06-03T13:56:03.167Z,43.70
2018-06-03T13:58:31.346Z,44.50
2018-06-03T14:00:59.533Z,45.20
2018-06-03T14:03:27.709Z,45.50
2018-06-03T14:05:55.893Z,42.90
2018-06-03T14:08:24.072Z,42.80
2018-06-03T14:10:52.256Z,43.10
2018-06-03T14:13:20.444Z,43.60
2018-06-03T14:18:16.573Z,44.10
2018-06-03T14:20:44.753Z,44.00
2018-06-03T14:23:12.941Z,43.20
2018-06-03T14:28:09.065Z,44.00
2018-06-03T14:30:37.252Z,42.20
2018-06-03T14:33:05.452Z,43.50
2018-06-03T14:38:01.627Z,44.60
2018-06-03T14:40:29.820Z,43.50
2018-06-03T14:42:57.992Z,44.50
2018-06-03T14:45:26.172Z,44.20
2018-06-03T14:47:54.356Z,44.30
2018-06-03T14:50:22.706Z,45.20
2018-06-03T14:55:18.824Z,42.90
2018-06-03T14:57:47.008Z,43.40
2018-06-03T15:00:15.178Z,44.20
2018-06-03T15:02:43.352Z,42.30
2018-06-03T15:05:11.536Z,42.70
2018-06-03T15:07:39.742Z,43.10
2018-06-03T15:10:07.930Z,41.30
2018-06-03T15:12:36.124Z,41.40
2018-06-03T15:15:04.457Z,41.00
2018-06-03T15:17:32.646Z,41.90
2018-06-03T15:20:00.849Z,43.30
2018-06-03T15:22:29.038Z,41.80
2018-06-03T15:24:57.270Z,41.20
2018-06-03T15:27:25.473Z,41.80
2018-06-03T15:29:53.650Z,40.90
2018-06-03T15:34:49.772Z,39.50
2018-06-03T15:37:17.968Z,40.50
2018-06-03T15:39:46.187Z,41.50
2018-06-03T15:42:14.404Z,42.80
2018-06-03T15:44:42.588Z,42.40
2018-06-03T15:47:10.772Z,42.50
2018-06-03T15:49:38.969Z,42.50
2018-06-03T15:52:07.349Z,42.40
2018-06-03T15:57:03.496Z,43.10
2018-06-03T16:01:59.683Z,42.90
2018-06-03T16:04:27.873Z,43.50
2018-06-03T16:06:56.074Z,42.90
2018-06-03T16:09:24.322Z,42.00
2018-06-03T16:11:52.528Z,41.10
2018-06-03T16:14:20.821Z,41.50
2018-06-03T16:16:48.985Z,40.90
2018-06-03T16:19:17.161Z,40.70
2018-06-03T16:21:45.352Z,39.20
2018-06-03T16:24:13.602Z,38.30
2018-06-03T16:26:41.737Z,39.70
2018-06-03T16:29:09.927Z,40.30
2018-06-03T16:31:38.124Z,41.10
2018-06-03T16:34:06.289Z,41.70
2018-06-03T16:36:34.497Z,41.00
2018-06-03T16:41:30.658Z,42.50
2018-06-03T16:43:58.959Z,42.70
2018-06-03T16:46:27.141Z,43.90
2018-06-03T16:48:55.334Z,44.10
2018-06-03T16:51:23.550Z,43.30
2018-06-03T16:53:51.749Z,43.30
2018-06-03T16:56:19.950Z,43.80
2018-06-03T16:58:48.138Z,42.90
2018-06-03T17:01:16.349Z,44.30
2018-06-03T17:06:12.632Z,44.10
2018-06-03T17:08:40.854Z,44.20
2018-06-03T17:11:09.056Z,44.60
2018-06-03T17:13:37.262Z,45.10
2018-06-03T17:16:05.678Z,45.60
2018-06-03T17:18:33.889Z,46.10
2018-06-03T17:23:30.057Z,46.00
2018-06-03T17:25:58.282Z,45.60
2018-06-03T17:28:26.486Z,46.50
2018-06-03T17:30:54.689Z,46.40
2018-06-03T17:33:22.899Z,46.90
2018-06-03T17:35:51.106Z,47.70
2018-06-03T17:38:19.328Z,47.30
2018-06-03T17:40:47.545Z,48.00
2018-06-03T17:45:43.906Z,47.70
2018-06-03T17:48:12.116Z,48.50
2018-06-03T17:50:40.313Z,47.40
2018-06-03T17:53:08.512Z,47.70
2018-06-03T17:55:36.712Z,47.80
2018-06-03T17:58:04.913Z,47.90
2018-06-03T18:00:33.120Z,48.50
2018-06-03T18:03:01.345Z,48.70
2018-06-03T18:05:29.592Z,48.90
2018-06-03T18:07:57.762Z,49.50
2018-06-03T18:10:25.971Z,49.90
2018-06-03T18:12:54.156Z,50.00
2018-06-03T18:15:22.345Z,50.60
2018-06-03T18:17:50.532Z,50.20
2018-06-03T18:20:18.721Z,50.50
2018-06-03T18:22:46.909Z,50.60
2018-06-03T18:25:15.133Z,51.20
2018-06-03T18:27:43.325Z,51.00
2018-06-03T18:30:11.509Z,51.20
2018-06-03T18:32:39.694Z,51.80
2018-06-03T18:35:07.890Z,51.80
2018-06-03T18:37:36.127Z,51.80
2018-06-03T18:40:04.437Z,52.20
2018-06-03T18:42:32.633Z,52.30
2018-06-03T18:45:01.354Z,52.10
2018-06-03T18:47:29.577Z,52.30
2018-06-03T18:49:57.841Z,52.70
2018-06-03T18:52:26.045Z,53.00
2018-06-03T18:54:54.247Z,53.40
2018-06-03T18:57:22.541Z,53.90
2018-06-03T18:59:50.746Z,53.60
2018-06-03T19:02:18.946Z,53.80
2018-06-03T19:04:47.141Z,53.80
2018-06-03T19:09:43.386Z,54.20
2018-06-03T19:14:39.545Z,54.80
2018-06-03T19:17:07.750Z,55.00
2018-06-03T19:19:35.938Z,55.80
2018-06-03T19:22:04.241Z,56.10
2018-06-03T19:24:32.471Z,56.40
2018-06-03T19:27:00.669Z,56.70
2018-06-03T19:29:28.879Z,57.20
2018-06-03T19:34:25.052Z,57.70
2018-06-03T19:36:53.233Z,58.20
2018-06-03T19:39:21.417Z,58.60
2018-06-03T19:41:49.687Z,58.90
2018-06-03T19:44:17.869Z,59.40
2018-06-03T19:46:46.061Z,59.80
2018-06-03T19:49:14.245Z,60.10
2018-06-03T19:51:42.436Z,60.40
2018-06-03T19:54:10.632Z,61.00
2018-06-03T19:56:38.808Z,61.50
2018-06-03T19:59:07.004Z,62.50
2018-06-03T20:01:35.198Z,63.40
2018-06-03T20:04:03.409Z,63.60
2018-06-03T20:06:31.597Z,63.80
2018-06-03T20:08:59.824Z,64.20
2018-06-03T20:11:28.037Z,64.60
2018-06-03T20:13:56.253Z,65.20
2018-06-03T20:16:24.445Z,66.50
2018-06-03T20:18:52.633Z,68.00
2018-06-03T20:21:20.817Z,68.50
2018-06-03T20:23:49.012Z,68.80
2018-06-03T20:26:17.206Z,69.20
2018-06-03T20:28:45.422Z,69.60
2018-06-03T20:31:13.701Z,70.40
2018-06-03T20:33:41.885Z,71.00
2018-06-03T20:36:10.120Z,71.10
2018-06-03T20:38:38.285Z,71.70
2018-06-03T20:41:06.662Z,72.30
2018-06-03T20:43:34.880Z,73.60
2018-06-03T20:46:03.069Z,73.30
2018-06-03T20:48:31.269Z,73.50
2018-06-03T20:50:59.464Z,74.00
2018-06-03T20:53:27.711Z,74.20
2018-06-03T20:55:55.915Z,74.60
2018-06-03T20:58:24.105Z,75.30
2018-06-03T21:00:52.317Z,76.70
2018-06-03T21:03:20.520Z,76.60
2018-06-03T21:05:48.722Z,76.80
2018-06-03T21:08:16.942Z,77.30
2018-06-03T21:10:45.137Z,77.90
2018-06-03T21:13:13.362Z,78.10
2018-06-03T21:15:41.541Z,78.50
2018-06-03T21:20:37.702Z,79.20
2018-06-03T21:23:06.036Z,79.30
2018-06-03T21:25:34.248Z,79.50
2018-06-03T21:28:02.440Z,79.70
2018-06-03T21:30:30.632Z,79.90
2018-06-03T21:32:58.813Z,80.40
2018-06-03T21:35:27.032Z,80.20
2018-06-03T21:37:55.233Z,80.20
2018-06-03T21:42:51.438Z,80.70
2018-06-03T21:45:19.622Z,80.90
2018-06-03T21:47:47.809Z,80.80
2018-06-03T21:52:43.978Z,81.30
2018-06-03T21:55:12.169Z,81.70
2018-06-03T21:57:40.357Z,82.20
2018-06-03T22:00:08.568Z,83.00
2018-06-03T22:02:36.741Z,83.00
2018-06-03T22:05:04.933Z,83.90
2018-06-03T22:07:33.137Z,83.30
2018-06-03T22:10:01.407Z,83.30
2018-06-03T22:12:29.596Z,83.50
2018-06-03T22:14:57.797Z,83.80
2018-06-03T22:17:25.977Z,83.50
2018-06-03T22:19:54.168Z,83.70
2018-06-03T22:22:22.374Z,83.50
2018-06-03T22:24:50.574Z,82.90
2018-06-03T22:27:18.817Z,83.20
2018-06-03T22:29:46.984Z,84.00
2018-06-03T22:32:15.184Z,84.20
2018-06-03T22:34:43.373Z,84.60
2018-06-03T22:37:11.593Z,84.90
2018-06-03T22:39:39.788Z,85.10
2018-06-03T22:42:08.014Z,85.70
2018-06-03T22:44:36.242Z,85.20
2018-06-03T22:47:04.445Z,85.20
2018-06-03T22:49:32.636Z,85.80
2018-06-03T22:52:00.824Z,86.00
2018-06-03T22:54:29.000Z,86.10
2018-06-03T22:58:04.782Z,86.00
2018-06-03T23:00:33.699Z,86.00
2018-06-03T23:03:07.349Z,86.30
2018-06-03T23:05:35.882Z,86.40
2018-06-03T23:08:04.183Z,86.40
2018-06-03T23:10:32.364Z,86.00
2018-06-03T23:13:00.545Z,86.60
2018-06-03T23:15:28.717Z,87.20
2018-06-03T23:17:57.133Z,87.30
2018-06-03T23:20:25.328Z,87.70
2018-06-03T23:22:53.517Z,88.00
2018-06-03T23:25:21.723Z,88.00
2018-06-03T23:27:49.965Z,88.30
2018-06-03T23:32:46.274Z,88.90
2018-06-03T23:35:14.522Z,89.60
2018-06-03T23:37:42.715Z,89.00
2018-06-03T23:40:10.898Z,89.00
2018-06-03T23:42:39.092Z,89.20
2018-06-03T23:45:07.310Z,89.80
2018-06-03T23:47:35.486Z,89.60
2018-06-03T23:50:03.675Z,89.20
2018-06-03T23:52:31.864Z,88.90
2018-06-03T23:55:00.047Z,89.40
2018-06-03T23:57:28.265Z,89.60
2018-06-03T23:59:56.452Z,89.90
